Time;durP1;ratioP1;P1;durP2;ratioP2;P2;SDS_P1;SDS_P2;PMS_P1;PMS_P2;Temp;Humidity;BMP_temperature;BMP_pressure;BME280_temperature;BME280_humidity;BME280_pressure;Samples;Min_cycle;Max_cycle;Signal;HPM_P1;HPM_P2
2021/04/15 00:01:13;;;;;;;0.20;0.10;;;;;;;0.60;94.83;101438.91;5009090;28;20460;-58
2021/04/15 00:03:39;;;;;;;0.20;0.10;;;;;;;0.78;96.52;101444.66;5009394;28;20440;-58
2021/04/15 00:06:16;;;;;;;0.30;0.20;;;;;;;0.77;96.75;101428.94;5012342;28;20495;-58
2021/04/15 00:08:44;;;;;;;0.20;0.20;;;;;;;0.78;96.15;101439.44;5010866;28;20949;-58
2021/04/15 00:11:11;;;;;;;0.20;0.10;;;;;;;0.91;95.43;101440.69;5012246;28;20596;-58
2021/04/15 00:13:42;;;;;;;0.20;0.10;;;;;;;0.91;95.61;101437.19;5012018;28;20823;-58
2021/04/15 00:16:09;;;;;;;0.20;0.10;;;;;;;0.86;94.81;101437.06;5012028;28;20549;-58
2021/04/15 00:18:36;;;;;;;0.20;0.10;;;;;;;1.04;94.44;101436.69;5011978;28;20452;-58
2021/04/15 00:21:04;;;;;;;0.20;0.13;;;;;;;0.74;94.82;101428.84;5012209;28;20452;-58
2021/04/15 00:23:31;;;;;;;0.20;0.10;;;;;;;0.65;95.22;101434.69;5013980;28;20880;-58
2021/04/15 00:25:59;;;;;;;0.20;0.10;;;;;;;0.58;95.67;101437.97;5015403;28;21020;-58
2021/04/15 00:28:25;;;;;;;0.20;0.20;;;;;;;0.69;94.74;101438.31;5015626;28;20476;-59
2021/04/15 00:30:51;;;;;;;0.20;0.10;;;;;;;0.57;95.11;101437.09;5015511;28;20484;-58
2021/04/15 00:33:18;;;;;;;0.20;0.10;;;;;;;0.43;95.65;101430.53;5015652;28;20883;-58
2021/04/15 00:35:45;;;;;;;0.20;0.10;;;;;;;0.35;95.56;101433.75;5015281;28;20477;-58
2021/04/15 00:38:13;;;;;;;0.30;0.30;;;;;;;0.35;96.05;101424.19;5015347;28;20996;-58
2021/04/15 00:40:42;;;;;;;0.20;0.10;;;;;;;0.25;96.11;101416.88;5015311;28;20507;-58
2021/04/15 00:43:09;;;;;;;0.20;0.10;;;;;;;0.11;96.08;101423.41;5015216;28;20880;-58
2021/04/15 00:45:38;;;;;;;0.20;0.10;;;;;;;0.03;95.85;101417.94;5015350;28;20526;-58
2021/04/15 00:48:41;;;;;;;0.20;0.10;;;;;;;0.02;96.08;101410.94;5015512;28;20456;-58
2021/04/15 00:51:13;;;;;;;0.20;0.10;;;;;;;-0.12;94.83;101418.34;5003031;28;20463;-58
2021/04/15 00:53:48;;;;;;;0.20;0.10;;;;;;;-0.12;95.90;101413.13;5014880;28;20496;-58
2021/04/15 00:56:15;;;;;;;0.20;0.10;;;;;;;-0.15;95.81;101412.09;5013855;28;20991;-58
2021/04/15 00:58:42;;;;;;;0.20;0.10;;;;;;;-0.19;96.43;101407.63;5015107;28;20589;-58
2021/04/15 01:01:09;;;;;;;0.20;0.10;;;;;;;-0.12;95.33;101402.66;5014866;28;20934;-58
2021/04/15 01:03:37;;;;;;;0.20;0.20;;;;;;;-0.24;95.87;101402.25;5014867;28;20488;-56
2021/04/15 01:06:06;;;;;;;0.20;0.10;;;;;;;-0.24;95.64;101396.16;5014832;28;20496;-56
2021/04/15 01:08:32;;;;;;;0.20;0.10;;;;;;;-0.29;96.06;101406.41;5014824;28;20453;-56
2021/04/15 01:11:21;;;;;;;0.20;0.10;;;;;;;-0.06;94.65;101397.63;5015354;28;20543;-56
2021/04/15 01:14:06;;;;;;;0.20;0.10;;;;;;;-0.37;95.44;101403.56;5013790;28;20492;-56
2021/04/15 01:16:55;;;;;;;0.20;0.10;;;;;;;-0.32;97.67;101402.00;5014828;28;20884;-56
2021/04/15 01:20:23;;;;;;;0.20;0.10;;;;;;;-0.23;97.50;101403.13;5015281;28;20444;-56
2021/04/15 01:22:52;;;;;;;0.20;0.20;;;;;;;-0.23;96.82;101401.41;4935147;29;20456;-56
2021/04/15 01:25:52;;;;;;;0.20;0.10;;;;;;;-0.37;96.48;101400.06;4935436;29;20492;-55
2021/04/15 01:28:21;;;;;;;0.20;0.10;;;;;;;-0.39;97.05;101404.38;4994578;28;20460;-56
2021/04/15 01:30:53;;;;;;;0.20;0.10;;;;;;;-0.41;96.44;101400.78;5014440;28;20459;-56
2021/04/15 01:33:38;;;;;;;0.20;0.10;;;;;;;-0.40;97.12;101399.97;5013947;28;20900;-56
2021/04/15 01:36:26;;;;;;;0.20;0.10;;;;;;;-0.60;97.29;101402.78;5014413;28;20472;-56
2021/04/15 01:39:07;;;;;;;0.20;0.10;;;;;;;-0.66;96.44;101399.09;5014284;28;20812;-56
2021/04/15 01:41:47;;;;;;;0.30;0.30;;;;;;;-0.66;97.65;101404.31;5014275;28;20498;-56
2021/04/15 01:44:21;;;;;;;0.20;0.10;;;;;;;-0.66;98.68;101402.59;5014226;28;20969;-56
2021/04/15 01:46:48;;;;;;;0.20;0.10;;;;;;;-0.64;98.10;101405.25;5014434;28;20480;-56
2021/04/15 01:49:16;;;;;;;0.20;0.10;;;;;;;-0.67;97.86;101407.75;5014290;28;20448;-56
2021/04/15 01:51:46;;;;;;;0.20;0.10;;;;;;;-0.70;97.82;101405.91;5014063;28;20460;-57
2021/04/15 01:54:18;;;;;;;0.20;0.10;;;;;;;-0.76;97.50;101403.09;5013862;28;20997;-57
2021/04/15 01:56:44;;;;;;;0.20;0.10;;;;;;;-0.86;96.87;101406.19;5014212;28;20523;-56
2021/04/15 01:59:52;;;;;;;0.20;0.10;;;;;;;-0.78;96.44;101417.81;5014033;28;20794;-56
2021/04/15 02:02:40;;;;;;;1.70;1.60;;;;;;;-0.95;97.04;101406.78;5013199;28;21019;-56
2021/04/15 02:05:13;;;;;;;0.20;0.10;;;;;;;-1.01;97.18;101411.75;5013656;28;20479;-56
2021/04/15 02:07:45;;;;;;;0.20;0.10;;;;;;;-1.01;97.13;101414.38;5012719;28;20457;-57
2021/04/15 02:10:13;;;;;;;0.20;0.10;;;;;;;-1.07;97.33;101411.56;5013791;28;20523;-56
2021/04/15 02:12:43;;;;;;;0.20;0.20;;;;;;;-0.79;98.38;101409.94;5013671;28;20452;-57
2021/04/15 02:15:19;;;;;;;0.20;0.10;;;;;;;-0.88;98.18;101405.25;5013677;28;20496;-56
2021/04/15 02:17:47;;;;;;;0.20;0.10;;;;;;;-0.97;96.69;101407.53;5013858;28;20445;-56
2021/04/15 02:20:15;;;;;;;0.20;0.10;;;;;;;-1.10;96.93;101413.13;4999409;28;20455;-56
2021/04/15 02:23:17;;;;;;;0.20;0.10;;;;;;;-1.16;97.66;101411.22;5013430;28;20448;-57
2021/04/15 02:25:48;;;;;;;0.20;0.10;;;;;;;-1.09;97.64;101414.94;5013370;28;20530;-56
2021/04/15 02:28:21;;;;;;;0.20;0.10;;;;;;;-1.15;98.07;101417.31;5013487;28;20453;-56
2021/04/15 02:30:53;;;;;;;0.20;0.10;;;;;;;-1.15;97.31;101414.69;5013482;28;20449;-57
2021/04/15 02:33:25;;;;;;;0.20;0.10;;;;;;;-1.38;97.82;101414.72;5000072;28;20452;-56
2021/04/15 02:35:58;;;;;;;0.20;0.10;;;;;;;-1.25;97.94;101411.75;5013343;28;20500;-56
2021/04/15 02:38:30;;;;;;;0.20;0.10;;;;;;;-1.27;97.41;101412.53;5013355;28;20453;-57
2021/04/15 02:41:01;;;;;;;0.20;0.10;;;;;;;-1.20;96.58;101420.66;5013204;28;20993;-56
2021/04/15 02:43:37;;;;;;;0.20;0.10;;;;;;;-1.28;96.80;101414.25;5012035;28;20444;-56
2021/04/15 02:46:08;;;;;;;0.20;0.10;;;;;;;-1.40;97.62;101419.00;5012167;28;20512;-56
2021/04/15 02:48:38;;;;;;;0.20;0.10;;;;;;;-1.38;97.26;101419.06;5013428;28;20518;-56
2021/04/15 02:51:08;;;;;;;0.20;0.10;;;;;;;-1.54;97.23;101418.47;5013037;28;20453;-56
2021/04/15 02:53:57;;;;;;;0.20;0.10;;;;;;;-1.47;97.68;101421.34;5012914;28;20449;-56
2021/04/15 02:56:30;;;;;;;0.20;0.10;;;;;;;-1.49;97.95;101413.44;5012876;28;20578;-57
2021/04/15 02:59:08;;;;;;;0.20;0.10;;;;;;;-1.34;99.12;101414.03;5012992;28;20938;-57
2021/04/15 03:01:39;;;;;;;0.97;0.97;;;;;;;-1.34;99.42;101416.63;5012788;28;20449;-56
2021/04/15 03:04:13;;;;;;;0.20;0.10;;;;;;;-1.56;98.43;101416.63;5000435;28;20451;-56
2021/04/15 03:06:42;;;;;;;0.20;0.10;;;;;;;-1.43;98.60;101413.66;5012847;28;20793;-56
2021/04/15 03:09:11;;;;;;;0.20;0.10;;;;;;;-1.23;97.75;101410.09;5011666;28;20453;-57
2021/04/15 03:11:52;;;;;;;0.20;0.10;;;;;;;-1.45;98.20;101411.84;5012821;28;20457;-58
2021/04/15 03:14:25;;;;;;;0.20;0.10;;;;;;;-1.31;98.15;101414.13;5012871;28;20523;-56
2021/04/15 03:16:59;;;;;;;0.20;0.10;;;;;;;-1.61;99.14;101413.88;5012643;28;20946;-57
2021/04/15 03:19:33;;;;;;;0.20;0.10;;;;;;;-1.65;98.69;101419.75;5011406;28;20448;-57
2021/04/15 03:22:23;;;;;;;0.20;0.10;;;;;;;-1.57;99.17;101415.75;5012701;28;20447;-57
2021/04/15 03:24:54;;;;;;;0.20;0.10;;;;;;;-1.68;98.23;101414.44;5012535;28;20511;-57
2021/04/15 03:27:52;;;;;;;0.20;0.10;;;;;;;-1.70;99.16;101423.94;5012728;28;20455;-58
2021/04/15 03:30:28;;;;;;;0.20;0.10;;;;;;;-1.70;99.27;101429.13;5012645;28;20449;-57
2021/04/15 03:33:05;;;;;;;0.20;0.10;;;;;;;-1.65;99.97;101430.19;5012579;28;21022;-55
2021/04/15 03:35:51;;;;;;;0.20;0.10;;;;;;;-1.69;98.64;101424.81;5012481;28;20500;-56
2021/04/15 03:38:23;;;;;;;0.20;0.10;;;;;;;-1.66;98.85;101424.91;5011339;28;20460;-55
2021/04/15 03:40:55;;;;;;;0.20;0.10;;;;;;;-1.64;98.94;101423.28;5011408;28;20441;-55
2021/04/15 03:43:37;;;;;;;0.20;0.10;;;;;;;-1.57;97.84;101428.78;5012714;28;20448;-55
2021/04/15 03:46:22;;;;;;;0.20;0.10;;;;;;;-1.81;98.83;101426.09;5012493;28;20472;-55
2021/04/15 03:48:53;;;;;;;0.20;0.10;;;;;;;-1.72;99.21;101422.97;5012701;28;20448;-56
2021/04/15 03:51:23;;;;;;;0.20;0.17;;;;;;;-1.77;99.43;101434.94;5012746;28;20938;-55
2021/04/15 03:54:12;;;;;;;0.20;0.10;;;;;;;-1.89;99.18;101429.25;5012367;28;20448;-55
2021/04/15 03:56:43;;;;;;;0.20;0.10;;;;;;;-1.61;99.61;101429.50;5014245;28;20453;-55
2021/04/15 03:59:17;;;;;;;0.20;0.10;;;;;;;-1.64;99.24;101436.31;5016565;28;20440;-55
2021/04/15 04:01:53;;;;;;;0.20;0.10;;;;;;;-1.76;98.56;101441.06;5011198;28;20499;-55
2021/04/15 04:04:32;;;;;;;0.20;0.20;;;;;;;-1.57;97.41;101433.13;5016201;28;20468;-55
2021/04/15 04:07:03;;;;;;;0.20;0.10;;;;;;;-1.76;98.36;101428.03;5015995;28;20525;-55
2021/04/15 04:09:40;;;;;;;0.20;0.10;;;;;;;-1.87;98.62;101436.28;5015926;28;20456;-55
2021/04/15 04:12:11;;;;;;;0.20;0.10;;;;;;;-1.91;98.59;101434.41;5016258;28;20455;-55
2021/04/15 04:15:02;;;;;;;0.20;0.10;;;;;;;-1.99;97.70;101435.81;5015852;28;20550;-55
2021/04/15 04:17:37;;;;;;;0.20;0.10;;;;;;;-1.89;98.66;101437.06;5015858;28;20452;-55
2021/04/15 04:20:05;;;;;;;0.20;0.10;;;;;;;-2.16;98.69;101435.13;5015788;28;21014;-54
2021/04/15 04:22:43;;;;;;;0.20;0.10;;;;;;;-2.10;98.80;101437.06;5016044;28;20452;-57
2021/04/15 04:25:15;;;;;;;0.20;0.10;;;;;;;-2.20;99.33;101433.19;5015620;28;20861;-54
2021/04/15 04:27:46;;;;;;;0.20;0.10;;;;;;;-2.31;98.99;101439.69;5015769;28;20447;-56
2021/04/15 04:30:42;;;;;;;0.20;0.10;;;;;;;-2.30;99.55;101440.59;5015575;28;20443;-54
2021/04/15 04:33:10;;;;;;;3.43;2.63;;;;;;;-2.15;99.73;101439.50;5012481;28;20465;-54
2021/04/15 04:35:44;;;;;;;0.20;0.13;;;;;;;-2.21;98.93;101446.16;5015369;28;20570;-55
2021/04/15 04:38:15;;;;;;;0.20;0.10;;;;;;;-2.09;99.20;101444.94;5003455;28;20869;-54
2021/04/15 04:40:44;;;;;;;0.20;0.10;;;;;;;-2.15;98.80;101443.81;5015148;28;20452;-55
2021/04/15 04:43:47;;;;;;;0.20;0.10;;;;;;;-1.97;98.34;101447.16;5030813;28;20449;-55
2021/04/15 04:46:40;;;;;;;0.20;0.10;;;;;;;-1.92;99.44;101452.56;5015308;28;20499;-55
2021/04/15 04:49:14;;;;;;;0.20;0.10;;;;;;;-1.95;99.29;101448.09;5015158;28;20441;-55
2021/04/15 04:51:55;;;;;;;0.20;0.10;;;;;;;-2.06;98.89;101449.38;5015503;28;20448;-55
2021/04/15 04:54:22;;;;;;;0.20;0.10;;;;;;;-2.08;99.21;101454.53;5002167;28;20488;-55
2021/04/15 04:57:11;;;;;;;0.20;0.20;;;;;;;-1.95;100.00;101455.94;5014062;28;20543;-55
2021/04/15 04:59:43;;;;;;;0.20;0.10;;;;;;;-1.80;99.85;101464.34;5013866;28;20452;-55
2021/04/15 05:02:14;;;;;;;0.20;0.10;;;;;;;-1.86;99.31;101463.22;5014976;28;20942;-55
2021/04/15 05:04:42;;;;;;;0.20;0.10;;;;;;;-1.84;99.04;101469.41;5014986;28;20472;-55
2021/04/15 05:07:17;;;;;;;0.20;0.10;;;;;;;-1.72;98.38;101463.78;5014609;28;20453;-54
2021/04/15 05:09:45;;;;;;;0.40;0.40;;;;;;;-1.85;99.53;101460.69;5012951;28;20451;-55
2021/04/15 05:12:27;;;;;;;0.20;0.10;;;;;;;-1.59;98.82;101466.06;5010076;28;20459;-55
2021/04/15 05:14:55;;;;;;;0.20;0.10;;;;;;;-1.41;99.42;101461.53;5014399;28;20500;-55
2021/04/15 05:17:34;;;;;;;0.20;0.10;;;;;;;-1.16;98.39;101468.59;5014795;28;20448;-55
2021/04/15 05:20:20;;;;;;;0.20;0.10;;;;;;;-0.52;97.06;101470.06;5014890;28;20468;-55
2021/04/15 05:22:51;;;;;;;0.20;0.10;;;;;;;-0.13;95.52;101467.94;5014238;28;20926;-56
2021/04/15 05:25:27;;;;;;;0.20;0.10;;;;;;;0.25;94.08;101467.44;5014341;28;20561;-55
2021/04/15 05:27:53;;;;;;;0.20;0.10;;;;;;;0.60;93.26;101475.53;5014391;28;20500;-55
2021/04/15 05:30:38;;;;;;;0.20;0.10;;;;;;;0.98;91.31;101467.94;5014430;28;20448;-56
2021/04/15 05:33:06;;;;;;;0.20;0.10;;;;;;;1.32;89.11;101475.91;5014612;28;20507;-55
2021/04/15 05:35:41;;;;;;;0.20;0.13;;;;;;;1.26;88.55;101473.13;5014280;28;20500;-55
2021/04/15 05:38:12;;;;;;;0.20;0.20;;;;;;;1.41;87.97;101483.13;5014392;28;20452;-55
2021/04/15 05:40:39;;;;;;;0.20;0.10;;;;;;;1.36;89.09;101482.97;5014159;28;20456;-55
2021/04/15 05:43:27;;;;;;;0.20;0.10;;;;;;;1.35;87.88;101481.22;5014367;28;20449;-56
2021/04/15 05:46:13;;;;;;;0.20;0.10;;;;;;;1.54;88.77;101482.63;5014091;28;20997;-55
2021/04/15 05:48:41;;;;;;;0.20;0.10;;;;;;;1.73;88.57;101482.25;5014022;28;20884;-55
2021/04/15 05:51:15;;;;;;;0.30;0.10;;;;;;;1.61;88.73;101481.03;5013921;28;20933;-56
2021/04/15 05:53:49;;;;;;;0.20;0.20;;;;;;;1.66;88.67;101485.59;5013543;28;20448;-55
2021/04/15 05:56:27;;;;;;;0.20;0.10;;;;;;;1.65;88.73;101480.31;5013848;28;20461;-55
2021/04/15 05:58:54;;;;;;;3.03;1.47;;;;;;;1.64;89.51;101478.50;5013880;28;20445;-55
2021/04/15 06:01:33;;;;;;;0.20;0.10;;;;;;;1.56;89.81;101482.66;5012613;28;20510;-55
2021/04/15 06:04:33;;;;;;;0.20;0.10;;;;;;;1.80;89.40;101472.84;5000609;28;20448;-55
2021/04/15 06:07:03;;;;;;;0.20;0.10;;;;;;;1.67;90.55;101484.72;5013623;28;20445;-55
2021/04/15 06:09:30;;;;;;;0.20;0.20;;;;;;;1.57;89.46;101484.44;5013869;28;20499;-55
2021/04/15 06:12:15;;;;;;;0.20;0.10;;;;;;;1.59;90.96;101483.63;5012268;28;20503;-54
2021/04/15 06:15:07;;;;;;;0.20;0.10;;;;;;;1.50;92.67;101478.13;5013246;28;20497;-55
2021/04/15 06:18:08;;;;;;;0.20;0.10;;;;;;;1.71;92.28;101475.22;5012406;28;20445;-55
2021/04/15 06:20:42;;;;;;;0.20;0.10;;;;;;;1.60;92.29;101481.91;5013756;28;20448;-55
2021/04/15 06:23:19;;;;;;;0.20;0.20;;;;;;;1.82;92.65;101476.38;5013476;28;20972;-55
2021/04/15 06:25:48;;;;;;;0.20;0.20;;;;;;;1.86;94.33;101477.34;5013416;28;20546;-55
2021/04/15 06:28:26;;;;;;;0.20;0.10;;;;;;;2.16;93.89;101483.34;5013165;28;20452;-55
2021/04/15 06:31:11;;;;;;;0.20;0.10;;;;;;;1.99;94.03;101482.06;5013063;28;20448;-55
2021/04/15 06:33:38;;;;;;;0.20;0.10;;;;;;;2.13;94.52;101482.41;5013140;28;20930;-55
2021/04/15 06:36:16;;;;;;;1.50;1.40;;;;;;;2.07;95.27;101485.78;5013134;28;20515;-56
2021/04/15 06:38:41;;;;;;;0.20;0.20;;;;;;;2.26;95.31;101481.84;5012107;28;20449;-55
2021/04/15 06:41:32;;;;;;;0.20;0.10;;;;;;;2.36;95.43;101479.50;5012676;28;20804;-55
2021/04/15 06:44:18;;;;;;;0.20;0.10;;;;;;;2.65;94.47;101480.16;5013278;28;20868;-55
2021/04/15 06:46:47;;;;;;;0.20;0.20;;;;;;;2.76;93.54;101477.78;5013209;28;20516;-55
2021/04/15 06:49:51;;;;;;;0.20;0.20;;;;;;;2.97;94.36;101478.25;5013139;28;20513;-55
2021/04/15 06:52:32;;;;;;;0.20;0.10;;;;;;;2.85;96.59;101477.97;5013158;28;20459;-55
2021/04/15 06:55:40;;;;;;;0.20;0.10;;;;;;;3.09;96.32;101474.09;5013046;28;20900;-55
2021/04/15 06:58:21;;;;;;;0.20;0.10;;;;;;;3.65;95.20;101477.84;4978006;28;20452;-55
2021/04/15 07:00:47;;;;;;;0.30;0.20;;;;;;;3.37;94.44;101475.56;5012928;28;20441;-56
2021/04/15 07:03:22;;;;;;;0.93;0.60;;;;;;;3.39;95.35;101471.22;5012630;28;20453;-56
2021/04/15 07:05:53;;;;;;;0.20;0.10;;;;;;;3.36;96.25;101471.16;5012551;28;20464;-56
2021/04/15 07:08:44;;;;;;;0.20;0.20;;;;;;;3.49;95.60;101467.91;5011732;28;20445;-55
2021/04/15 07:11:36;;;;;;;0.20;0.20;;;;;;;3.66;94.58;101471.75;5012614;28;20880;-56
2021/04/15 07:14:11;;;;;;;0.30;0.20;;;;;;;3.68;95.74;101469.13;5002262;28;20811;-56
2021/04/15 07:17:04;;;;;;;0.30;0.20;;;;;;;3.91;95.62;101474.81;5012370;28;20455;-56
2021/04/15 07:20:15;;;;;;;0.30;0.10;;;;;;;3.90;96.13;101468.66;5012588;28;20488;-56
2021/04/15 07:23:24;;;;;;;0.20;0.10;;;;;;;4.35;95.47;101467.66;5012651;28;20445;-57
2021/04/15 07:26:09;;;;;;;0.20;0.20;;;;;;;4.56;94.58;101467.13;5012611;28;21052;-57
2021/04/15 07:28:51;;;;;;;0.30;0.10;;;;;;;4.67;94.95;101469.03;5012792;28;20441;-57
2021/04/15 07:31:29;;;;;;;0.30;0.20;;;;;;;4.92;93.70;101467.63;5015159;28;20969;-57
2021/04/15 07:34:29;;;;;;;0.30;0.20;;;;;;;5.37;93.17;101468.19;5019399;28;20448;-57
2021/04/15 07:37:14;;;;;;;0.30;0.20;;;;;;;5.59;91.39;101457.00;5019268;28;20456;-57
2021/04/15 07:40:17;;;;;;;0.30;0.20;;;;;;;5.84;90.62;101466.94;5018727;28;20455;-57
2021/04/15 07:43:14;;;;;;;0.30;0.20;;;;;;;5.98;87.67;101469.72;5018936;28;20544;-58
2021/04/15 07:45:58;;;;;;;0.30;0.17;;;;;;;6.20;85.90;101469.06;5019016;28;20465;-57
2021/04/15 07:48:49;;;;;;;0.30;0.20;;;;;;;6.36;85.41;101466.53;5018447;28;20455;-57
2021/04/15 07:51:38;;;;;;;0.30;0.20;;;;;;;6.66;84.46;101463.22;5018755;28;20448;-57
2021/04/15 07:54:19;;;;;;;0.43;0.43;;;;;;;6.57;82.57;101464.03;5018650;28;20448;-57
2021/04/15 07:57:04;;;;;;;2.37;2.17;;;;;;;6.53;81.39;101467.53;5018451;28;20448;-57
2021/04/15 07:59:30;;;;;;;0.30;0.20;;;;;;;6.38;81.37;101456.88;5018819;28;20447;-58
2021/04/15 08:02:27;;;;;;;0.30;0.20;;;;;;;6.52;79.52;101474.56;5018542;28;20452;-57
2021/04/15 08:05:08;;;;;;;0.30;0.20;;;;;;;6.40;79.43;101469.19;5018281;28;20965;-57
2021/04/15 08:07:43;;;;;;;0.30;0.20;;;;;;;6.42;77.46;101466.56;5018447;28;20965;-57
2021/04/15 08:10:31;;;;;;;0.30;0.10;;;;;;;6.79;76.54;101459.78;5017456;28;20467;-58
2021/04/15 08:13:06;;;;;;;0.30;0.20;;;;;;;7.15;77.49;101469.66;5018421;28;20456;-57
2021/04/15 08:16:01;;;;;;;0.30;0.20;;;;;;;6.95;75.40;101460.75;5018468;28;20498;-57
2021/04/15 08:18:41;;;;;;;0.30;0.10;;;;;;;7.47;74.98;101459.19;4981571;28;20448;-58
2021/04/15 08:21:20;;;;;;;0.30;0.20;;;;;;;7.46;73.17;101454.78;5018302;28;20949;-58
2021/04/15 08:24:04;;;;;;;1.00;0.83;;;;;;;7.54;73.12;101455.69;5018453;28;20891;-58
2021/04/15 08:27:08;;;;;;;0.30;0.20;;;;;;;7.43;72.82;101460.94;5018232;28;20480;-57
2021/04/15 08:29:40;;;;;;;0.30;0.13;;;;;;;7.23;72.13;101465.28;5018230;28;20479;-57
2021/04/15 08:32:23;;;;;;;0.30;0.20;;;;;;;7.25;72.44;101463.50;5018451;28;20459;-57
2021/04/15 08:34:59;;;;;;;0.30;0.20;;;;;;;7.17;71.89;101465.25;5006136;28;20523;-57
2021/04/15 08:37:36;;;;;;;0.30;0.20;;;;;;;7.24;72.11;101461.75;5018690;28;20443;-57
2021/04/15 08:40:27;;;;;;;0.30;0.20;;;;;;;7.53;71.57;101459.19;5018839;28;20440;-57
2021/04/15 08:43:04;;;;;;;0.30;0.10;;;;;;;7.73;71.28;101457.50;5001545;28;20453;-58
2021/04/15 08:45:33;;;;;;;0.97;0.97;;;;;;;7.63;71.09;101462.75;5015181;28;20472;-58
2021/04/15 08:48:33;;;;;;;0.30;0.20;;;;;;;8.02;69.18;101460.19;5015247;28;20558;-58
2021/04/15 08:51:04;;;;;;;0.30;0.20;;;;;;;8.15;67.31;101458.41;5015480;28;20531;-58
2021/04/15 08:53:39;;;;;;;0.30;0.20;;;;;;;8.36;67.02;101461.97;5015177;28;20448;-58
2021/04/15 08:56:26;;;;;;;0.30;0.20;;;;;;;8.45;66.06;101470.78;5014796;28;20496;-58
2021/04/15 08:58:55;;;;;;;0.30;0.20;;;;;;;8.08;64.77;101466.34;5015416;28;20448;-58
2021/04/15 09:01:42;;;;;;;0.30;0.20;;;;;;;7.88;67.51;101463.69;5015200;28;20452;-57
2021/04/15 09:04:22;;;;;;;0.30;0.20;;;;;;;8.03;66.33;101472.53;5003841;28;20444;-57
2021/04/15 09:07:44;;;;;;;0.30;0.20;;;;;;;7.75;66.90;101459.25;5014869;28;21060;-58
2021/04/15 09:10:20;;;;;;;0.30;0.20;;;;;;;7.96;66.79;101457.53;4976432;28;20457;-58
2021/04/15 09:13:33;;;;;;;0.30;0.20;;;;;;;7.94;66.58;101463.69;5015065;28;20499;-58
2021/04/15 09:16:28;;;;;;;0.30;0.20;;;;;;;7.82;66.69;101456.63;4971868;28;21121;-58
2021/04/15 09:19:21;;;;;;;0.30;0.20;;;;;;;7.81;65.09;101451.31;5013545;28;20455;-57
2021/04/15 09:22:29;;;;;;;0.30;0.10;;;;;;;8.12;64.07;101452.25;5005007;28;20449;-57
2021/04/15 09:25:24;;;;;;;0.30;0.20;;;;;;;8.46;60.31;101446.06;5013603;28;20479;-58
2021/04/15 09:28:07;;;;;;;0.30;0.20;;;;;;;8.76;62.96;101453.06;4985864;28;20448;-58
2021/04/15 09:31:10;;;;;;;0.30;0.20;;;;;;;8.51;62.67;101451.38;5014718;28;20444;-58
2021/04/15 09:33:52;;;;;;;0.30;0.20;;;;;;;8.55;63.13;101453.13;5020674;28;20453;-59
2021/04/15 09:37:04;;;;;;;0.30;0.20;;;;;;;8.46;62.26;101458.44;5014112;28;20500;-58
2021/04/15 09:39:43;;;;;;;0.30;0.20;;;;;;;8.06;63.98;101452.22;5014481;28;20444;-58
2021/04/15 09:42:35;;;;;;;0.30;0.20;;;;;;;8.84;63.48;101445.09;5014326;28;20448;-58
2021/04/15 09:45:19;;;;;;;0.30;0.20;;;;;;;8.93;60.61;101441.56;5013773;28;20469;-58
2021/04/15 09:48:01;;;;;;;0.30;0.20;;;;;;;8.81;58.51;101445.13;5013218;28;20453;-58
2021/04/15 09:51:01;;;;;;;0.30;0.20;;;;;;;8.55;58.48;101442.53;5013935;28;20477;-58
2021/04/15 09:54:05;;;;;;;0.30;0.20;;;;;;;8.51;59.48;101449.59;5012586;28;20448;-58
2021/04/15 09:56:39;;;;;;;0.30;0.20;;;;;;;8.25;61.05;101454.00;5014008;28;20492;-58
2021/04/15 09:59:15;;;;;;;0.30;0.20;;;;;;;7.87;62.28;101452.22;5001610;28;20447;-57
2021/04/15 10:01:47;;;;;;;0.30;0.20;;;;;;;8.01;62.63;101452.22;5013402;28;20444;-57
2021/04/15 10:04:39;;;;;;;0.30;0.20;;;;;;;7.95;62.94;101453.13;5014114;28;20441;-57
2021/04/15 10:07:15;;;;;;;0.30;0.20;;;;;;;8.24;62.78;101441.66;5013722;28;20939;-57
2021/04/15 10:09:56;;;;;;;0.30;0.20;;;;;;;7.96;61.71;101433.72;5013776;28;20441;-58
2021/04/15 10:12:42;;;;;;;0.30;0.20;;;;;;;7.88;62.56;101451.34;5003250;28;20499;-57
2021/04/15 10:15:27;;;;;;;0.30;0.20;;;;;;;7.83;62.43;101453.09;5013851;28;20496;-57
2021/04/15 10:18:21;;;;;;;0.30;0.20;;;;;;;7.71;66.82;101447.78;5013525;28;20452;-57
2021/04/15 10:20:50;;;;;;;0.30;0.20;;;;;;;6.98;71.20;101455.47;5013526;28;20858;-57
2021/04/15 10:23:24;;;;;;;0.30;0.20;;;;;;;6.77;73.39;101466.81;5013751;28;20453;-57
2021/04/15 10:26:00;;;;;;;0.30;0.20;;;;;;;6.87;77.02;101446.63;5013780;28;21001;-57
2021/04/15 10:28:29;;;;;;;0.43;0.43;;;;;;;6.96;75.83;101449.28;5013457;28;20452;-57
2021/04/15 10:31:08;;;;;;;0.30;0.20;;;;;;;7.13;74.92;101437.94;5013058;28;20515;-58
2021/04/15 10:33:58;;;;;;;0.30;0.20;;;;;;;7.34;71.81;101434.47;5013532;28;20451;-57
2021/04/15 10:36:53;;;;;;;0.30;0.10;;;;;;;7.65;69.32;101432.78;5013190;28;20550;-57
2021/04/15 10:40:02;;;;;;;0.30;0.20;;;;;;;8.02;70.96;101427.53;5013544;28;20452;-57
2021/04/15 10:42:47;;;;;;;0.30;0.17;;;;;;;8.67;67.46;101420.44;5013349;28;20565;-58
2021/04/15 10:45:24;;;;;;;0.30;0.20;;;;;;;8.65;61.56;101422.19;5013065;28;20469;-58
2021/04/15 10:48:00;;;;;;;0.30;0.20;;;;;;;8.87;59.27;101419.47;4999927;28;20448;-58
2021/04/15 10:50:53;;;;;;;0.30;0.20;;;;;;;9.25;59.64;101406.94;5013221;28;20451;-58
2021/04/15 10:53:40;;;;;;;0.30;0.20;;;;;;;9.41;55.09;101404.19;5013020;28;20445;-58
2021/04/15 10:56:12;;;;;;;0.30;0.20;;;;;;;9.09;53.25;101409.66;5013134;28;20849;-57
2021/04/15 10:58:47;;;;;;;0.30;0.20;;;;;;;9.44;56.20;101403.28;5013060;28;20457;-58
2021/04/15 11:01:32;;;;;;;2.73;2.63;;;;;;;9.17;52.93;101413.16;5013147;28;20510;-58
2021/04/15 11:04:03;;;;;;;0.30;0.20;;;;;;;9.23;51.72;101396.34;5012747;28;20506;-58
2021/04/15 11:06:35;;;;;;;0.30;0.20;;;;;;;9.56;53.33;101397.00;5011963;28;20465;-58
2021/04/15 11:09:32;;;;;;;0.30;0.20;;;;;;;10.18;52.38;101379.72;5013089;28;20510;-58
2021/04/15 11:12:03;;;;;;;0.30;0.20;;;;;;;9.92;50.05;101391.44;5012822;28;20445;-58
2021/04/15 11:14:37;;;;;;;0.30;0.20;;;;;;;10.33;51.41;101368.97;5012838;28;20448;-58
2021/04/15 11:17:23;;;;;;;0.30;0.20;;;;;;;10.05;50.29;101395.75;5000455;28;20514;-58
2021/04/15 11:20:18;;;;;;;2.37;2.27;;;;;;;9.69;50.22;101391.59;5012765;28;20456;-58
2021/04/15 11:23:27;;;;;;;0.30;0.20;;;;;;;9.75;50.82;101396.91;5012493;28;20804;-57
2021/04/15 11:26:10;;;;;;;0.30;0.20;;;;;;;9.55;48.25;101389.94;4991823;28;20472;-58
2021/04/15 11:28:36;;;;;;;0.30;0.20;;;;;;;9.55;51.78;101389.94;5012509;28;20452;-57
2021/04/15 11:31:09;;;;;;;0.30;0.20;;;;;;;9.31;52.72;101393.63;5012726;28;20455;-58
2021/04/15 11:33:44;;;;;;;0.30;0.20;;;;;;;9.56;49.98;101384.63;5012394;28;20520;-57
2021/04/15 11:36:33;;;;;;;0.30;0.20;;;;;;;9.76;50.20;101381.84;5012499;28;20840;-58
2021/04/15 11:39:11;;;;;;;0.30;0.20;;;;;;;9.90;49.51;101381.72;5012613;28;20444;-58
2021/04/15 11:42:00;;;;;;;0.30;0.20;;;;;;;9.94;50.87;101381.69;5010967;28;20444;-58
2021/04/15 11:44:44;;;;;;;0.30;0.20;;;;;;;9.84;50.46;101384.41;5002216;28;20958;-58
2021/04/15 11:47:31;;;;;;;0.30;0.20;;;;;;;10.05;48.42;101381.59;5012218;28;20457;-58
2021/04/15 11:50:25;;;;;;;0.30;0.20;;;;;;;9.95;47.94;101387.88;5011729;28;20968;-57
2021/04/15 11:52:53;;;;;;;0.30;0.20;;;;;;;9.65;47.60;101386.34;4997497;28;20954;-58
2021/04/15 11:55:25;;;;;;;0.30;0.20;;;;;;;9.98;47.16;101395.81;5012097;28;20496;-58
2021/04/15 11:57:59;;;;;;;0.30;0.20;;;;;;;10.31;51.00;101381.38;5012622;28;20449;-58
2021/04/15 12:00:25;;;;;;;0.30;0.20;;;;;;;10.07;53.28;101401.06;5012090;28;20468;-58
2021/04/15 12:02:57;;;;;;;0.30;0.20;;;;;;;9.57;52.23;101388.16;5012078;28;20838;-58
2021/04/15 12:05:40;;;;;;;0.30;0.17;;;;;;;9.16;53.45;101392.81;5012093;28;20488;-58
2021/04/15 12:08:12;;;;;;;0.30;0.20;;;;;;;9.08;50.51;101386.69;5012095;28;20451;-58
2021/04/15 12:10:45;;;;;;;0.30;0.20;;;;;;;9.14;51.80;101380.47;5012262;28;20452;-58
2021/04/15 12:13:29;;;;;;;0.30;0.10;;;;;;;9.10;50.32;101381.38;5010882;28;20476;-58
2021/04/15 12:16:13;;;;;;;0.30;0.20;;;;;;;9.27;50.27;101374.19;5011828;28;20982;-57
2021/04/15 12:19:05;;;;;;;0.30;0.20;;;;;;;9.41;47.68;101374.09;5003232;28;20455;-57
2021/04/15 12:21:44;;;;;;;0.30;0.20;;;;;;;9.55;47.83;101369.59;5006675;28;20563;-57
2021/04/15 12:24:26;;;;;;;0.30;0.20;;;;;;;9.35;45.73;101363.56;5015854;28;20437;-58
2021/04/15 12:26:58;;;;;;;0.30;0.20;;;;;;;9.67;46.52;101363.31;5015986;28;20448;-58